Time;durP1;ratioP1;P1;durP2;ratioP2;P2;SDS_P1;SDS_P2;PMS_P1;PMS_P2;Temp;Humidity;BMP_temperature;BMP_pressure;BME280_temperature;BME280_humidity;BME280_pressure;Samples;Min_cycle;Max_cycle;Signal;HPM_P1;HPM_P2
2022/11/10 00:00:40;;;;;;;19.70;4.40;;;;;;;;;;5091702;27;20490;-71
2022/11/10 00:03:06;;;;;;;19.65;4.70;;;;;;;;;;5095939;27;20079;-71
2022/11/10 00:05:32;;;;;;;20.48;4.28;;;;;;;;;;5092413;28;20394;-74
2022/11/10 00:08:03;;;;;;;20.23;4.40;;;;;;;;;;5096835;27;21218;-71
2022/11/10 00:10:29;;;;;;;26.70;4.78;;;;;;;;;;5094135;27;20117;-71
2022/11/10 00:12:58;;;;;;;19.73;5.03;;;;;;;;;;5099705;28;20047;-71
2022/11/10 00:18:09;;;;;;;20.08;4.93;;;;;;;;;;5091004;28;20056;-74
2022/11/10 00:20:35;;;;;;;19.15;4.90;;;;;;;;;;5072401;28;20134;-73
2022/11/10 00:23:01;;;;;;;19.95;4.80;;;;;;;;;;5079469;27;20120;-71
2022/11/10 00:25:27;;;;;;;26.40;5.85;;;;;;;;;;5090474;28;20486;-71
2022/11/10 00:27:53;;;;;;;28.20;5.40;;;;;;;;;;5096516;27;20044;-71
2022/11/10 00:30:19;;;;;;;21.90;4.85;;;;;;;;;;5079057;28;20047;-71
2022/11/10 00:32:47;;;;;;;21.77;5.25;;;;;;;;;;5094253;27;20049;-72
2022/11/10 00:35:13;;;;;;;24.42;5.07;;;;;;;;;;5092818;27;20097;-73
2022/11/10 00:37:39;;;;;;;26.83;6.05;;;;;;;;;;5091011;28;20043;-73
2022/11/10 00:40:05;;;;;;;18.05;5.18;;;;;;;;;;5095452;27;20846;-73
2022/11/10 00:42:31;;;;;;;24.45;6.05;;;;;;;;;;5090686;28;20949;-71
2022/11/10 00:44:57;;;;;;;26.15;5.95;;;;;;;;;;5095474;27;20044;-71
2022/11/10 00:47:23;;;;;;;19.77;5.85;;;;;;;;;;5100921;27;20448;-73
2022/11/10 00:49:49;;;;;;;24.45;5.53;;;;;;;;;;5090988;27;20131;-72
2022/11/10 00:52:15;;;;;;;30.90;6.20;;;;;;;;;;5096003;27;20269;-72
2022/11/10 00:54:41;;;;;;;28.33;6.65;;;;;;;;;;5095778;28;20035;-73
2022/11/10 00:57:07;;;;;;;25.70;6.30;;;;;;;;;;5094272;28;20489;-71
2022/11/10 00:59:33;;;;;;;24.33;6.53;;;;;;;;;;5093221;28;20414;-73
2022/11/10 01:01:59;;;;;;;26.90;5.90;;;;;;;;;;5096574;28;20112;-72
2022/11/10 01:04:25;;;;;;;21.50;6.00;;;;;;;;;;5096375;28;20054;-71
2022/11/10 01:06:51;;;;;;;22.88;6.80;;;;;;;;;;5095996;28;20043;-71
2022/11/10 01:09:17;;;;;;;27.88;7.00;;;;;;;;;;5093232;27;20093;-70
2022/11/10 01:11:43;;;;;;;21.27;6.50;;;;;;;;;;5095865;27;20048;-71
2022/11/10 01:14:09;;;;;;;22.13;6.63;;;;;;;;;;5096706;28;20525;-71
2022/11/10 01:16:35;;;;;;;28.88;6.88;;;;;;;;;;5091260;28;20079;-70
2022/11/10 01:19:02;;;;;;;34.78;7.53;;;;;;;;;;5089557;28;20047;-73
2022/11/10 01:21:28;;;;;;;21.23;7.07;;;;;;;;;;5075866;28;20821;-71
2022/11/10 01:23:55;;;;;;;29.52;7.70;;;;;;;;;;5094314;28;20390;-72
2022/11/10 01:26:21;;;;;;;25.73;7.63;;;;;;;;;;5091737;28;20120;-72
2022/11/10 01:28:47;;;;;;;27.48;7.85;;;;;;;;;;5097285;28;20055;-72
2022/11/10 01:31:17;;;;;;;30.02;8.02;;;;;;;;;;5098653;28;20089;-72
2022/11/10 01:33:43;;;;;;;27.10;7.22;;;;;;;;;;5091245;28;20375;-72
2022/11/10 01:36:10;;;;;;;21.55;7.40;;;;;;;;;;5090599;28;20047;-73
2022/11/10 01:38:37;;;;;;;26.52;7.57;;;;;;;;;;5095756;28;20463;-72
2022/11/10 01:41:05;;;;;;;30.05;8.27;;;;;;;;;;5090091;28;20124;-72
2022/11/10 01:43:31;;;;;;;22.73;6.68;;;;;;;;;;5093087;28;20142;-72
2022/11/10 01:46:08;;;;;;;25.77;8.02;;;;;;;;;;5095738;28;20044;-72
2022/11/10 01:48:37;;;;;;;28.95;8.10;;;;;;;;;;5098691;28;20059;-71
2022/11/10 01:51:06;;;;;;;27.10;7.57;;;;;;;;;;5080210;28;20072;-72
2022/11/10 01:53:33;;;;;;;20.13;6.68;;;;;;;;;;5096318;28;20599;-73
2022/11/10 01:56:00;;;;;;;30.95;6.90;;;;;;;;;;5095786;28;20212;-70
2022/11/10 01:58:28;;;;;;;27.30;7.35;;;;;;;;;;5093338;28;20075;-71
2022/11/10 02:00:54;;;;;;;19.55;7.05;;;;;;;;;;5094581;28;20044;-71
2022/11/10 02:03:23;;;;;;;23.25;7.32;;;;;;;;;;5091159;28;20147;-70
2022/11/10 02:05:50;;;;;;;24.88;7.32;;;;;;;;;;5095412;28;20412;-71
2022/11/10 02:08:17;;;;;;;26.83;7.07;;;;;;;;;;5091448;28;20048;-71
2022/11/10 02:10:43;;;;;;;24.77;7.45;;;;;;;;;;5095998;28;20036;-71
2022/11/10 02:13:10;;;;;;;25.95;7.28;;;;;;;;;;5093575;28;20054;-71
2022/11/10 02:15:36;;;;;;;24.58;6.70;;;;;;;;;;5095337;28;20061;-69
2022/11/10 02:18:02;;;;;;;22.25;6.78;;;;;;;;;;5098223;28;20048;-72
2022/11/10 02:20:28;;;;;;;21.55;6.18;;;;;;;;;;5094209;28;20070;-71
2022/11/10 02:22:54;;;;;;;19.95;6.68;;;;;;;;;;5101408;27;20051;-70
2022/11/10 02:25:21;;;;;;;21.83;6.72;;;;;;;;;;5093895;28;20043;-73
2022/11/10 02:27:47;;;;;;;22.05;6.53;;;;;;;;;;5103405;27;20052;-72
2022/11/10 02:30:13;;;;;;;22.75;6.22;;;;;;;;;;5092678;28;20132;-70
2022/11/10 02:32:39;;;;;;;25.08;6.63;;;;;;;;;;5096869;27;20055;-73
2022/11/10 02:35:06;;;;;;;18.17;6.20;;;;;;;;;;5095472;27;20039;-73
2022/11/10 02:37:32;;;;;;;24.42;6.78;;;;;;;;;;5099635;27;20185;-72
2022/11/10 02:39:58;;;;;;;21.75;6.65;;;;;;;;;;5094455;27;20798;-72
2022/11/10 02:42:25;;;;;;;22.85;6.80;;;;;;;;;;5079659;28;20070;-71
2022/11/10 02:44:50;;;;;;;22.83;7.07;;;;;;;;;;5095841;27;20035;-72
2022/11/10 02:47:17;;;;;;;22.02;6.93;;;;;;;;;;5099136;27;20051;-72
2022/11/10 02:49:43;;;;;;;29.50;7.38;;;;;;;;;;5093135;27;20050;-72
2022/11/10 02:52:10;;;;;;;30.33;7.60;;;;;;;;;;5093874;27;20051;-69
2022/11/10 02:54:36;;;;;;;27.33;8.02;;;;;;;;;;5095432;27;20052;-72
2022/11/10 02:57:02;;;;;;;27.02;8.40;;;;;;;;;;5094553;27;20093;-70
2022/11/10 02:59:28;;;;;;;26.75;8.32;;;;;;;;;;5093265;27;20043;-70
2022/11/10 03:01:54;;;;;;;22.17;8.35;;;;;;;;;;5097288;27;20448;-70
2022/11/10 03:04:20;;;;;;;24.17;8.77;;;;;;;;;;5098227;27;20063;-73
2022/11/10 03:06:46;;;;;;;27.92;10.35;;;;;;;;;;5101330;27;20051;-71
2022/11/10 03:09:12;;;;;;;33.85;10.63;;;;;;;;;;5094554;28;20048;-70
2022/11/10 03:11:38;;;;;;;35.05;10.77;;;;;;;;;;5096651;28;20036;-70
2022/11/10 03:14:04;;;;;;;30.58;11.18;;;;;;;;;;5097455;28;20044;-70
2022/11/10 03:16:30;;;;;;;32.70;12.38;;;;;;;;;;5094139;27;20405;-70
2022/11/10 03:18:56;;;;;;;40.80;13.27;;;;;;;;;;5100653;27;20055;-70
2022/11/10 03:21:22;;;;;;;30.33;12.68;;;;;;;;;;5100991;27;20055;-70
2022/11/10 03:23:48;;;;;;;33.10;12.75;;;;;;;;;;5097529;28;20044;-71
2022/11/10 03:26:14;;;;;;;33.22;12.98;;;;;;;;;;5100593;28;20043;-72
2022/11/10 03:28:40;;;;;;;36.30;12.13;;;;;;;;;;5099469;27;20100;-72
2022/11/10 03:31:06;;;;;;;36.38;13.70;;;;;;;;;;5100954;27;20050;-69
2022/11/10 03:33:32;;;;;;;38.88;14.48;;;;;;;;;;5096206;28;20490;-72
2022/11/10 03:35:58;;;;;;;39.88;14.38;;;;;;;;;;5096532;28;20043;-71
2022/11/10 03:38:24;;;;;;;39.53;14.80;;;;;;;;;;5094560;28;20054;-71
2022/11/10 03:40:50;;;;;;;37.13;14.52;;;;;;;;;;5094831;27;20144;-72
2022/11/10 03:43:16;;;;;;;33.42;14.55;;;;;;;;;;5097181;27;20047;-72
2022/11/10 03:45:43;;;;;;;44.53;14.95;;;;;;;;;;5097041;27;21312;-72
2022/11/10 03:48:10;;;;;;;36.20;14.35;;;;;;;;;;5101143;27;20435;-72
2022/11/10 03:50:35;;;;;;;43.17;14.80;;;;;;;;;;5096325;27;20410;-70
2022/11/10 03:53:01;;;;;;;37.97;15.65;;;;;;;;;;5096360;27;20044;-73
2022/11/10 03:55:27;;;;;;;35.58;14.55;;;;;;;;;;5095783;28;20494;-72
2022/11/10 03:57:53;;;;;;;46.15;15.35;;;;;;;;;;5096547;28;20100;-72
2022/11/10 04:00:20;;;;;;;35.00;14.55;;;;;;;;;;5094262;28;20408;-72
2022/11/10 04:02:46;;;;;;;38.85;14.55;;;;;;;;;;5093494;28;20452;-71
2022/11/10 04:10:45;;;;;;;36.60;13.32;;;;;;;;;;5103558;27;20035;-71
2022/11/10 04:15:56;;;;;;;42.42;14.57;;;;;;;;;;5098133;27;20031;-72
2022/11/10 04:18:25;;;;;;;33.78;13.85;;;;;;;;;;5082455;28;20047;-71
2022/11/10 04:21:01;;;;;;;37.72;14.65;;;;;;;;;;5074471;28;20048;-71
2022/11/10 04:23:34;;;;;;;39.15;14.50;;;;;;;;;;5091216;28;20058;-72
2022/11/10 04:28:52;;;;;;;36.20;14.25;;;;;;;;;;5094178;27;20044;-72
2022/11/10 04:31:18;;;;;;;36.80;13.50;;;;;;;;;;5091696;27;20093;-70
2022/11/10 04:33:45;;;;;;;37.13;14.38;;;;;;;;;;5091215;28;20083;-69
2022/11/10 04:36:12;;;;;;;38.47;14.05;;;;;;;;;;5085466;28;20044;-73
2022/11/10 04:38:38;;;;;;;38.45;15.43;;;;;;;;;;5095676;27;20052;-70
2022/11/10 04:41:04;;;;;;;34.90;14.85;;;;;;;;;;5080254;28;20047;-71
2022/11/10 04:43:30;;;;;;;42.65;14.98;;;;;;;;;;5095373;28;20505;-72
2022/11/10 04:45:56;;;;;;;35.13;15.00;;;;;;;;;;5092370;28;20130;-72
2022/11/10 04:48:23;;;;;;;41.92;14.40;;;;;;;;;;5096530;28;20056;-72
2022/11/10 04:50:49;;;;;;;42.28;15.43;;;;;;;;;;5095673;27;20036;-72
2022/11/10 04:53:15;;;;;;;33.97;14.48;;;;;;;;;;5098222;27;20059;-72
2022/11/10 04:55:44;;;;;;;41.92;14.68;;;;;;;;;;5093858;27;20040;-70
2022/11/10 04:58:10;;;;;;;37.75;15.35;;;;;;;;;;5092459;27;20131;-71
2022/11/10 05:00:36;;;;;;;34.88;14.60;;;;;;;;;;5098855;27;20043;-71
2022/11/10 05:03:03;;;;;;;39.13;16.38;;;;;;;;;;5095248;27;20062;-70
2022/11/10 05:05:29;;;;;;;38.47;15.98;;;;;;;;;;5097176;27;20501;-71
2022/11/10 05:07:56;;;;;;;49.55;15.65;;;;;;;;;;5089840;28;20105;-70
2022/11/10 05:10:22;;;;;;;35.92;14.00;;;;;;;;;;5092848;28;20043;-70
2022/11/10 05:12:48;;;;;;;45.67;16.13;;;;;;;;;;5096082;28;20603;-71
2022/11/10 05:15:14;;;;;;;36.40;15.20;;;;;;;;;;5096410;27;20139;-72
2022/11/10 05:17:40;;;;;;;37.45;15.60;;;;;;;;;;5096640;28;20491;-70
2022/11/10 05:20:07;;;;;;;37.67;14.73;;;;;;;;;;5096812;28;20050;-70
2022/11/10 05:22:33;;;;;;;45.35;16.70;;;;;;;;;;5099354;27;20107;-70
2022/11/10 05:24:59;;;;;;;40.47;16.70;;;;;;;;;;5094060;28;20043;-70
2022/11/10 05:27:25;;;;;;;42.67;15.88;;;;;;;;;;5093072;28;20055;-72
2022/11/10 05:29:51;;;;;;;45.03;17.85;;;;;;;;;;5092832;28;20071;-71
2022/11/10 05:32:17;;;;;;;41.67;16.00;;;;;;;;;;5094130;28;20450;-71
2022/11/10 05:34:43;;;;;;;41.65;16.58;;;;;;;;;;5093846;28;20048;-70
2022/11/10 05:37:09;;;;;;;48.35;16.92;;;;;;;;;;5097122;28;20068;-70
2022/11/10 05:39:35;;;;;;;48.25;17.25;;;;;;;;;;5093057;28;20056;-70
2022/11/10 05:42:00;;;;;;;45.13;17.45;;;;;;;;;;5092653;28;20040;-70
2022/11/10 05:44:26;;;;;;;45.67;16.20;;;;;;;;;;5096200;28;20056;-70
2022/11/10 05:46:52;;;;;;;48.30;17.25;;;;;;;;;;5097822;28;20047;-70
2022/11/10 05:49:18;;;;;;;41.65;18.02;;;;;;;;;;5096128;28;20678;-73
2022/11/10 05:51:44;;;;;;;42.80;18.13;;;;;;;;;;5091309;28;20480;-73
2022/11/10 05:54:10;;;;;;;46.45;17.70;;;;;;;;;;5072237;28;20039;-70
2022/11/10 05:56:36;;;;;;;43.55;17.80;;;;;;;;;;5096713;28;20043;-72
2022/11/10 05:59:02;;;;;;;40.20;17.88;;;;;;;;;;5095563;27;20143;-71
2022/11/10 06:01:28;;;;;;;47.35;19.55;;;;;;;;;;5091820;27;20046;-71
2022/11/10 06:03:54;;;;;;;53.22;20.52;;;;;;;;;;5095525;27;20052;-73
2022/11/10 06:06:21;;;;;;;42.35;18.45;;;;;;;;;;5095399;27;20043;-70
2022/11/10 06:08:48;;;;;;;43.53;18.23;;;;;;;;;;5100208;28;20665;-70
2022/11/10 06:11:14;;;;;;;45.33;19.83;;;;;;;;;;5102861;27;20495;-70
2022/11/10 06:13:40;;;;;;;46.22;18.25;;;;;;;;;;5104773;27;20041;-70
2022/11/10 06:16:06;;;;;;;43.22;18.42;;;;;;;;;;5095952;27;20546;-71
2022/11/10 06:18:31;;;;;;;35.58;17.48;;;;;;;;;;5092814;27;20076;-71
2022/11/10 06:20:57;;;;;;;43.45;18.48;;;;;;;;;;5093391;28;20101;-71
2022/11/10 06:23:23;;;;;;;43.97;17.45;;;;;;;;;;5097986;28;20051;-70
2022/11/10 06:25:49;;;;;;;38.05;17.02;;;;;;;;;;5094586;28;20039;-70
2022/11/10 06:28:16;;;;;;;44.47;17.92;;;;;;;;;;5102300;27;20040;-71
2022/11/10 06:30:42;;;;;;;46.53;16.83;;;;;;;;;;5097959;27;20052;-71
2022/11/10 06:33:08;;;;;;;43.35;17.17;;;;;;;;;;5090981;27;20471;-71
2022/11/10 06:35:34;;;;;;;39.42;16.15;;;;;;;;;;5091710;28;20047;-71
2022/11/10 06:38:05;;;;;;;37.47;15.90;;;;;;;;;;5095836;27;20055;-70
2022/11/10 06:40:31;;;;;;;35.60;16.10;;;;;;;;;;5093693;27;20383;-70
2022/11/10 06:42:57;;;;;;;39.08;16.30;;;;;;;;;;5094854;28;20127;-70
2022/11/10 06:45:24;;;;;;;42.63;16.40;;;;;;;;;;5099540;27;20039;-70
2022/11/10 06:47:58;;;;;;;37.33;15.23;;;;;;;;;;5099873;27;20044;-70
2022/11/10 06:50:24;;;;;;;32.38;14.68;;;;;;;;;;5097255;27;20432;-70
2022/11/10 06:52:57;;;;;;;38.08;16.33;;;;;;;;;;5094194;27;20042;-70
2022/11/10 06:55:23;;;;;;;;;;;;;;;;;;5086159;28;20071;-71
2022/11/10 06:57:49;;;;;;;36.97;15.23;;;;;;;;;;5097531;28;19963;-71
2022/11/10 07:00:15;;;;;;;40.70;15.98;;;;;;;;;;5116081;27;20035;-71
2022/11/10 07:02:41;;;;;;;39.38;16.35;;;;;;;;;;5101999;27;20474;-72
2022/11/10 07:05:07;;;;;;;43.30;16.27;;;;;;;;;;5095088;28;20397;-73
2022/11/10 07:07:33;;;;;;;37.55;16.95;;;;;;;;;;5095621;28;20159;-70
2022/11/10 07:09:59;;;;;;;43.90;17.27;;;;;;;;;;5094146;28;20093;-70
2022/11/10 07:12:25;;;;;;;41.13;16.27;;;;;;;;;;5093399;27;20506;-70
2022/11/10 07:14:51;;;;;;;35.38;16.17;;;;;;;;;;5094004;27;20036;-70
2022/11/10 07:17:17;;;;;;;43.05;17.75;;;;;;;;;;5106205;27;20039;-71
2022/11/10 07:19:43;;;;;;;40.63;17.40;;;;;;;;;;5103938;27;20039;-70
2022/11/10 07:22:09;;;;;;;46.58;18.00;;;;;;;;;;5097076;28;20126;-70
2022/11/10 07:24:35;;;;;;;41.33;18.02;;;;;;;;;;5108035;27;20048;-70
2022/11/10 07:27:01;;;;;;;44.40;17.55;;;;;;;;;;5106313;27;20122;-71
2022/11/10 07:29:27;;;;;;;45.60;18.50;;;;;;;;;;5107633;27;20510;-72
2022/11/10 07:31:53;;;;;;;42.45;17.67;;;;;;;;;;5099080;27;20064;-72
2022/11/10 07:34:19;;;;;;;39.05;19.00;;;;;;;;;;5106197;27;20407;-71
2022/11/10 07:36:45;;;;;;;43.05;18.58;;;;;;;;;;5099115;28;20042;-70
2022/11/10 07:39:12;;;;;;;40.95;18.15;;;;;;;;;;5115072;27;20047;-72
2022/11/10 07:41:38;;;;;;;41.80;17.52;;;;;;;;;;5104060;27;20101;-70
2022/11/10 07:44:04;;;;;;;38.58;17.35;;;;;;;;;;5113277;27;20397;-70
2022/11/10 07:46:30;;;;;;;36.50;17.45;;;;;;;;;;5107464;27;20044;-73
2022/11/10 07:48:56;;;;;;;41.28;17.92;;;;;;;;;;5104899;27;20048;-71
2022/11/10 07:51:22;;;;;;;40.25;18.70;;;;;;;;;;5117159;27;20051;-71
2022/11/10 07:53:48;;;;;;;39.38;18.50;;;;;;;;;;5106056;28;20039;-70
2022/11/10 07:56:14;;;;;;;44.00;18.40;;;;;;;;;;5110900;27;20036;-71
2022/11/10 07:58:40;;;;;;;42.08;19.55;;;;;;;;;;5108221;27;20051;-72
2022/11/10 08:01:06;;;;;;;41.30;19.42;;;;;;;;;;5105388;27;20051;-72
2022/11/10 08:03:32;;;;;;;45.45;19.60;;;;;;;;;;5105151;27;20040;-72
2022/11/10 08:05:58;;;;;;;40.58;20.30;;;;;;;;;;5099916;28;20044;-71
2022/11/10 08:08:24;;;;;;;41.90;19.35;;;;;;;;;;5099178;27;20043;-70
2022/11/10 08:10:50;;;;;;;38.40;18.98;;;;;;;;;;5099452;27;20063;-70
2022/11/10 08:13:16;;;;;;;39.65;18.42;;;;;;;;;;5102900;27;20058;-73
2022/11/10 08:15:42;;;;;;;45.47;19.92;;;;;;;;;;5107816;28;20047;-72
2022/11/10 08:18:14;;;;;;;41.25;19.02;;;;;;;;;;5098620;27;20402;-72
2022/11/10 08:20:41;;;;;;;34.85;18.33;;;;;;;;;;5103572;28;20134;-73
2022/11/10 08:23:07;;;;;;;44.92;19.17;;;;;;;;;;5106647;27;20172;-72
2022/11/10 08:25:34;;;;;;;42.97;18.52;;;;;;;;;;5102553;27;20046;-72
2022/11/10 08:28:01;;;;;;;37.50;19.13;;;;;;;;;;5107215;27;20044;-70
2022/11/10 08:30:28;;;;;;;39.05;19.00;;;;;;;;;;5106266;27;20489;-71
2022/11/10 08:32:55;;;;;;;34.03;17.35;;;;;;;;;;5117799;27;20042;-70
2022/11/10 08:35:21;;;;;;;40.20;18.80;;;;;;;;;;5109186;27;20044;-71
2022/11/10 08:37:47;;;;;;;38.55;17.83;;;;;;;;;;5104179;28;20047;-70
2022/11/10 08:40:14;;;;;;;40.78;16.95;;;;;;;;;;5101321;27;20081;-71
2022/11/10 08:42:40;;;;;;;34.55;15.15;;;;;;;;;;5107688;27;20503;-71
2022/11/10 08:45:06;;;;;;;39.03;16.33;;;;;;;;;;5101645;27;20200;-70
2022/11/10 08:47:32;;;;;;;36.92;15.63;;;;;;;;;;5097817;27;20056;-70
2022/11/10 08:49:58;;;;;;;30.63;13.82;;;;;;;;;;5102323;27;20490;-70
2022/11/10 08:52:24;;;;;;;32.72;13.60;;;;;;;;;;5106417;27;20047;-71
2022/11/10 08:54:50;;;;;;;33.65;13.52;;;;;;;;;;5101360;28;20039;-71
2022/11/10 08:57:16;;;;;;;34.35;13.68;;;;;;;;;;5100296;28;20093;-71
2022/11/10 08:59:42;;;;;;;28.45;13.27;;;;;;;;;;5086098;28;20054;-74
2022/11/10 09:02:09;;;;;;;33.83;13.40;;;;;;;;;;5107044;27;20651;-72
2022/11/10 09:04:35;;;;;;;34.30;12.00;;;;;;;;;;5104986;27;20052;-70
2022/11/10 09:07:01;;;;;;;31.10;12.05;;;;;;;;;;5103363;27;20047;-71
2022/11/10 09:09:27;;;;;;;37.30;11.75;;;;;;;;;;5101906;28;20048;-71
2022/11/10 09:11:53;;;;;;;30.17;11.95;;;;;;;;;;5104405;27;20079;-72
2022/11/10 09:14:19;;;;;;;33.28;12.50;;;;;;;;;;5099923;28;20076;-70
2022/11/10 09:16:45;;;;;;;26.55;11.65;;;;;;;;;;5094538;27;20043;-72
2022/11/10 09:19:11;;;;;;;23.88;11.30;;;;;;;;;;5103017;28;20493;-71
2022/11/10 09:21:37;;;;;;;25.13;11.05;;;;;;;;;;5080112;28;20052;-71
2022/11/10 09:24:03;;;;;;;28.90;11.20;;;;;;;;;;5098285;28;20104;-71
2022/11/10 09:26:30;;;;;;;29.38;10.38;;;;;;;;;;5107480;28;20491;-70
2022/11/10 09:28:56;;;;;;;32.67;10.10;;;;;;;;;;5106809;28;20043;-70
2022/11/10 09:31:23;;;;;;;29.90;10.98;;;;;;;;;;5104215;28;20047;-70
2022/11/10 09:33:49;;;;;;;29.45;10.25;;;;;;;;;;5106050;27;20050;-70
2022/11/10 09:36:15;;;;;;;32.08;10.48;;;;;;;;;;5109950;28;20694;-70
2022/11/10 09:38:41;;;;;;;33.30;11.23;;;;;;;;;;5105635;28;20047;-71
2022/11/10 09:41:08;;;;;;;27.50;10.60;;;;;;;;;;5085574;27;20501;-70
2022/11/10 09:43:43;;;;;;;30.80;11.05;;;;;;;;;;5093717;28;20047;-70
2022/11/10 09:46:15;;;;;;;26.80;10.45;;;;;;;;;;5107610;28;20070;-72
2022/11/10 09:48:45;;;;;;;28.38;8.88;;;;;;;;;;5107373;27;20043;-71
2022/11/10 09:51:15;;;;;;;23.25;8.95;;;;;;;;;;5101730;27;20043;-69
2022/11/10 09:53:42;;;;;;;27.70;9.27;;;;;;;;;;5114334;27;20046;-72
2022/11/10 09:56:11;;;;;;;27.98;8.63;;;;;;;;;;5105224;27;20098;-72
2022/11/10 09:58:38;;;;;;;26.60;7.57;;;;;;;;;;5108433;27;20111;-69
2022/11/10 10:01:18;;;;;;;27.60;7.60;;;;;;;;;;5102804;28;20541;-70
2022/11/10 10:03:47;;;;;;;25.42;6.80;;;;;;;;;;5102885;27;20047;-71
2022/11/10 10:06:14;;;;;;;24.00;7.40;;;;;;;;;;5103137;28;20039;-70
2022/11/10 10:08:59;;;;;;;26.35;6.40;;;;;;;;;;5099588;28;20055;-70
2022/11/10 10:11:31;;;;;;;21.33;5.85;;;;;;;;;;5099479;28;20090;-69
2022/11/10 10:14:06;;;;;;;23.27;6.82;;;;;;;;;;5102719;28;20155;-69
2022/11/10 10:16:51;;;;;;;20.40;6.28;;;;;;;;;;5084460;28;20055;-70
2022/11/10 10:19:23;;;;;;;20.48;6.13;;;;;;;;;;5105158;28;20043;-71
2022/11/10 10:21:52;;;;;;;21.75;5.95;;;;;;;;;;5097798;28;20050;-71
2022/11/10 10:24:19;;;;;;;23.15;6.13;;;;;;;;;;5098192;28;20093;-70
2022/11/10 10:26:53;;;;;;;23.08;5.95;;;;;;;;;;5100765;28;20131;-70
2022/11/10 10:29:21;;;;;;;24.33;5.47;;;;;;;;;;5099652;28;20047;-70
2022/11/10 10:31:49;;;;;;;17.30;5.28;;;;;;;;;;5107541;28;20044;-69
2022/11/10 10:34:16;;;;;;;19.60;5.55;;;;;;;;;;5096726;28;20518;-69
2022/11/10 10:36:43;;;;;;;23.20;5.65;;;;;;;;;;5106225;28;20039;-72
2022/11/10 10:39:13;;;;;;;20.77;5.43;;;;;;;;;;5099316;28;20096;-72
2022/11/10 10:41:41;;;;;;;22.98;5.65;;;;;;;;;;5104155;27;20521;-71
2022/11/10 10:44:15;;;;;;;25.23;5.95;;;;;;;;;;5099820;28;20436;-69
2022/11/10 10:46:46;;;;;;;25.30;5.32;;;;;;;;;;5103272;28;20135;-69
2022/11/10 10:49:17;;;;;;;23.65;5.55;;;;;;;;;;5108037;28;20559;-69
2022/11/10 10:51:44;;;;;;;27.43;5.70;;;;;;;;;;5106001;28;20043;-70
2022/11/10 10:54:22;;;;;;;25.35;5.07;;;;;;;;;;5099078;28;20328;-71
2022/11/10 10:56:48;;;;;;;20.05;4.70;;;;;;;;;;5104757;28;20085;-72
2022/11/10 10:59:21;;;;;;;16.95;4.85;;;;;;;;;;5105059;28;20054;-72
2022/11/10 11:01:52;;;;;;;27.67;5.15;;;;;;;;;;5109080;28;20047;-69
2022/11/10 11:04:27;;;;;;;20.85;5.07;;;;;;;;;;5099168;28;20054;-70
2022/11/10 11:07:04;;;;;;;23.92;4.70;;;;;;;;;;5095737;28;20505;-71
2022/11/10 11:09:39;;;;;;;20.65;4.95;;;;;;;;;;5097979;28;20407;-71
2022/11/10 11:12:31;;;;;;;23.88;5.15;;;;;;;;;;5090517;28;20043;-69
2022/11/10 11:15:16;;;;;;;23.77;5.20;;;;;;;;;;5090143;27;20035;-71
2022/11/10 11:17:53;;;;;;;25.65;5.55;;;;;;;;;;5095597;28;20040;-70
2022/11/10 11:20:19;;;;;;;17.23;4.95;;;;;;;;;;5101387;28;20393;-70
2022/11/10 11:22:45;;;;;;;19.63;4.68;;;;;;;;;;5089581;28;20503;-73
2022/11/10 11:25:24;;;;;;;19.27;4.85;;;;;;;;;;5098417;28;20047;-70
2022/11/10 11:27:58;;;;;;;20.38;4.68;;;;;;;;;;5096473;28;20040;-69
2022/11/10 11:30:28;;;;;;;19.77;4.53;;;;;;;;;;5104703;28;20044;-69
2022/11/10 11:33:03;;;;;;;26.95;4.85;;;;;;;;;;5083716;28;20043;-70
2022/11/10 11:35:33;;;;;;;22.55;4.72;;;;;;;;;;5097009;28;20051;-72
2022/11/10 11:38:16;;;;;;;25.95;4.55;;;;;;;;;;5098010;28;20063;-71
2022/11/10 11:40:47;;;;;;;21.27;5.22;;;;;;;;;;5089880;28;20786;-69
2022/11/10 11:43:19;;;;;;;23.08;4.72;;;;;;;;;;5094602;28;20035;-71
2022/11/10 11:45:49;;;;;;;22.27;4.30;;;;;;;;;;5079186;28;20088;-72
2022/11/10 11:48:18;;;;;;;21.83;3.97;;;;;;;;;;5097631;28;20046;-72
2022/11/10 11:50:54;;;;;;;18.60;4.35;;;;;;;;;;5097666;28;20092;-71
2022/11/10 11:53:40;;;;;;;18.27;3.75;;;;;;;;;;5105622;28;20122;-70
2022/11/10 11:56:06;;;;;;;19.67;3.60;;;;;;;;;;5103824;28;20043;-70
2022/11/10 11:58:35;;;;;;;19.85;3.95;;;;;;;;;;5104405;28;20417;-71
2022/11/10 12:01:04;;;;;;;16.77;3.63;;;;;;;;;;5102715;28;20039;-72
2022/11/10 12:03:40;;;;;;;18.20;4.60;;;;;;;;;;5103401;27;20040;-70
2022/11/10 12:06:21;;;;;;;24.08;4.03;;;;;;;;;;5097783;28;20139;-69
2022/11/10 12:09:13;;;;;;;19.85;3.58;;;;;;;;;;5106575;28;20075;-70
2022/11/10 12:11:57;;;;;;;19.67;4.13;;;;;;;;;;5103751;28;20060;-72
2022/11/10 12:14:27;;;;;;;18.02;3.33;;;;;;;;;;5098785;28;20035;-72
2022/11/10 12:17:02;;;;;;;16.85;3.10;;;;;;;;;;5093824;28;20054;-71
2022/11/10 12:19:33;;;;;;;18.98;3.63;;;;;;;;;;5102060;27;20054;-71
2022/11/10 12:21:59;;;;;;;16.95;3.35;;;;;;;;;;5106194;28;20035;-71
2022/11/10 12:24:36;;;;;;;16.25;3.70;;;;;;;;;;5098605;28;20066;-72
2022/11/10 12:27:13;;;;;;;14.13;3.05;;;;;;;;;;5101851;28;20571;-71
2022/11/10 12:29:49;;;;;;;16.55;3.65;;;;;;;;;;5104558;28;20585;-71
2022/11/10 12:32:19;;;;;;;15.65;3.00;;;;;;;;;;5098515;28;20044;-68
2022/11/10 12:34:52;;;;;;;19.65;3.50;;;;;;;;;;5093452;28;20040;-68
2022/11/10 12:37:30;;;;;;;18.27;3.28;;;;;;;;;;5102824;28;20134;-71
2022/11/10 12:40:14;;;;;;;15.05;2.60;;;;;;;;;;5099457;28;20097;-71
2022/11/10 12:42:41;;;;;;;15.60;3.90;;;;;;;;;;5083148;28;20048;-71
2022/11/10 12:45:15;;;;;;;15.88;2.90;;;;;;;;;;5102286;28;20062;-70
2022/11/10 12:47:43;;;;;;;17.48;3.33;;;;;;;;;;5081377;28;20109;-70
2022/11/10 12:50:15;;;;;;;15.27;2.63;;;;;;;;;;5103947;28;20070;-71
2022/11/10 12:52:59;;;;;;;22.85;3.20;;;;;;;;;;5097090;28;20055;-70
2022/11/10 12:55:36;;;;;;;21.25;4.38;;;;;;;;;;5094783;28;20051;-73
2022/11/10 12:58:04;;;;;;;17.83;2.85;;;;;;;;;;5100253;28;20048;-69
2022/11/10 13:00:40;;;;;;;16.13;3.08;;;;;;;;;;5102981;28;20071;-71
2022/11/10 13:03:13;;;;;;;19.23;2.92;;;;;;;;;;5105276;28;20039;-71
2022/11/10 13:05:41;;;;;;;20.75;3.20;;;;;;;;;;5100756;28;20043;-71
2022/11/10 13:08:26;;;;;;;17.33;3.33;;;;;;;;;;5102343;28;20177;-71
2022/11/10 13:11:07;;;;;;;19.65;3.50;;;;;;;;;;5096852;28;20074;-70
2022/11/10 13:13:41;;;;;;;18.65;3.13;;;;;;;;;;5090144;28;20136;-71
2022/11/10 13:16:09;;;;;;;20.35;3.63;;;;;;;;;;5095385;28;20044;-70
2022/11/10 13:18:35;;;;;;;19.40;2.88;;;;;;;;;;5094557;28;20051;-70
2022/11/10 13:21:01;;;;;;;18.40;3.75;;;;;;;;;;5097458;28;20120;-71
2022/11/10 13:23:32;;;;;;;17.40;3.30;;;;;;;;;;5099958;28;20162;-71
2022/11/10 13:26:04;;;;;;;14.48;2.75;;;;;;;;;;5098337;28;20044;-70
2022/11/10 13:28:46;;;;;;;15.65;3.08;;;;;;;;;;5093536;28;20070;-70
2022/11/10 13:31:27;;;;;;;19.73;3.95;;;;;;;;;;5093940;28;20040;-72
2022/11/10 13:34:02;;;;;;;15.38;3.10;;;;;;;;;;5111934;28;20039;-69
2022/11/10 13:36:44;;;;;;;24.75;3.95;;;;;;;;;;5104669;28;20474;-71
2022/11/10 13:39:30;;;;;;;21.83;3.42;;;;;;;;;;5100233;28;20071;-72
2022/11/10 13:42:00;;;;;;;17.73;3.47;;;;;;;;;;5103991;28;20035;-71
2022/11/10 13:44:28;;;;;;;21.80;3.53;;;;;;;;;;5101499;28;20418;-71
2022/11/10 13:46:54;;;;;;;17.15;3.00;;;;;;;;;;5098261;28;20036;-71
2022/11/10 13:49:31;;;;;;;16.92;2.70;;;;;;;;;;5101796;28;20391;-70
2022/11/10 13:52:17;;;;;;;18.25;3.25;;;;;;;;;;5099862;28;20097;-71
2022/11/10 13:54:43;;;;;;;16.15;3.42;;;;;;;;;;5100321;28;20055;-71
2022/11/10 13:57:17;;;;;;;17.80;3.47;;;;;;;;;;5094670;28;20035;-67
2022/11/10 13:59:51;;;;;;;17.95;2.65;;;;;;;;;;5100897;28;20043;-67
2022/11/10 14:02:32;;;;;;;15.13;3.30;;;;;;;;;;5096453;28;20074;-66
2022/11/10 14:04:59;;;;;;;19.35;3.80;;;;;;;;;;5094694;28;20563;-70
2022/11/10 14:07:28;;;;;;;14.15;2.75;;;;;;;;;;5082506;28;20083;-67
2022/11/10 14:09:55;;;;;;;23.67;3.53;;;;;;;;;;5106350;28;20064;-67
2022/11/10 14:12:48;;;;;;;15.65;3.20;;;;;;;;;;5100965;28;20073;-67
2022/11/10 14:15:17;;;;;;;18.40;3.33;;;;;;;;;;5072038;28;20036;-67
2022/11/10 14:17:48;;;;;;;14.63;3.28;;;;;;;;;;5103872;27;20039;-67
2022/11/10 14:20:34;;;;;;;17.95;3.05;;;;;;;;;;5114576;27;20043;-66
2022/11/10 14:23:00;;;;;;;14.60;3.22;;;;;;;;;;5114157;27;20047;-66
2022/11/10 14:25:37;;;;;;;17.55;3.50;;;;;;;;;;5109956;27;20054;-69
2022/11/10 14:28:18;;;;;;;20.50;3.47;;;;;;;;;;5109606;27;20448;-67
2022/11/10 14:30:50;;;;;;;17.13;3.35;;;;;;;;;;5110999;27;20048;-68
2022/11/10 14:33:16;;;;;;;20.15;3.55;;;;;;;;;;5112016;27;20067;-67
2022/11/10 14:35:48;;;;;;;14.30;3.20;;;;;;;;;;5113014;27;20070;-72
2022/11/10 14:38:16;;;;;;;22.88;3.97;;;;;;;;;;5107081;27;20047;-69
2022/11/10 14:40:42;;;;;;;15.32;3.00;;;;;;;;;;5116501;27;20563;-69
2022/11/10 14:43:24;;;;;;;15.95;3.17;;;;;;;;;;5122332;27;20039;-69
2022/11/10 14:45:51;;;;;;;16.67;3.75;;;;;;;;;;5111512;27;20123;-69